Terminal Aerodrome Forecast
Issued by NWS Portland, OR

Home | Current Version | Previous Version | Text Only | Print | Product List | Glossary On
Versions: 1 2 3 4 5 6 7 8 9 10 11 12 13 14 15 16 17 18 19 20 21 22 23 24 25 26 27 28 29 30 31 32 33 34 35 36 37 38 39 40
000
FTUS46 KPQR 291735
TAFEUG
TAF
KEUG 291735Z 2918/3018 02004KT 3SM BR OVC004
     FM292000 01005KT 4SM BR OVC009
     FM292230 01007KT P6SM SCT015 SCT100
     FM300600 35004KT 5SM BR SCT015 SCT100
     FM301200 01003KT 2SM BR OVC004=

USA.gov is the U.S. government's official web portal to all federal, state and local government web resources and services.